sensor_id;sensor_type;location;lat;lon;timestamp;P1;durP1;ratioP1;P2;durP2;ratioP2
47713;SDS011;33475;46.614;13.888;2023-02-28T00:00:05;5.30;;;4.47;;
47713;SDS011;33475;46.614;13.888;2023-02-28T00:02:41;8.02;;;4.28;;
47713;SDS011;33475;46.614;13.888;2023-02-28T00:05:09;4.72;;;4.30;;
47713;SDS011;33475;46.614;13.888;2023-02-28T00:07:36;4.57;;;4.03;;
47713;SDS011;33475;46.614;13.888;2023-02-28T00:10:03;4.30;;;3.72;;
47713;SDS011;33475;46.614;13.888;2023-02-28T00:12:31;5.43;;;3.80;;
47713;SDS011;33475;46.614;13.888;2023-02-28T00:14:57;5.45;;;4.70;;
47713;SDS011;33475;46.614;13.888;2023-02-28T00:17:23;5.20;;;4.43;;
47713;SDS011;33475;46.614;13.888;2023-02-28T00:19:50;4.75;;;4.28;;
47713;SDS011;33475;46.614;13.888;2023-02-28T00:22:17;4.95;;;4.45;;
47713;SDS011;33475;46.614;13.888;2023-02-28T00:24:44;7.35;;;4.75;;
47713;SDS011;33475;46.614;13.888;2023-02-28T00:27:11;5.28;;;4.22;;
47713;SDS011;33475;46.614;13.888;2023-02-28T00:29:37;4.55;;;4.15;;
47713;SDS011;33475;46.614;13.888;2023-02-28T00:32:04;8.52;;;3.92;;
47713;SDS011;33475;46.614;13.888;2023-02-28T00:34:30;5.15;;;4.15;;
47713;SDS011;33475;46.614;13.888;2023-02-28T00:37:06;5.10;;;4.03;;
47713;SDS011;33475;46.614;13.888;2023-02-28T00:39:33;4.72;;;4.20;;
47713;SDS011;33475;46.614;13.888;2023-02-28T00:42:00;5.07;;;4.53;;
47713;SDS011;33475;46.614;13.888;2023-02-28T00:44:27;5.93;;;4.43;;
47713;SDS011;33475;46.614;13.888;2023-02-28T00:46:53;4.70;;;3.90;;
47713;SDS011;33475;46.614;13.888;2023-02-28T00:49:20;5.57;;;4.78;;
47713;SDS011;33475;46.614;13.888;2023-02-28T00:51:47;4.50;;;4.10;;
47713;SDS011;33475;46.614;13.888;2023-02-28T00:54:13;7.32;;;4.03;;
47713;SDS011;33475;46.614;13.888;2023-02-28T00:56:39;5.00;;;4.28;;
47713;SDS011;33475;46.614;13.888;2023-02-28T00:59:05;5.60;;;4.30;;
47713;SDS011;33475;46.614;13.888;2023-02-28T01:01:31;6.97;;;4.43;;
47713;SDS011;33475;46.614;13.888;2023-02-28T01:03:57;5.28;;;4.03;;
47713;SDS011;33475;46.614;13.888;2023-02-28T01:06:23;5.07;;;4.20;;
47713;SDS011;33475;46.614;13.888;2023-02-28T01:08:50;6.40;;;4.25;;
47713;SDS011;33475;46.614;13.888;2023-02-28T01:11:16;5.25;;;3.95;;
47713;SDS011;33475;46.614;13.888;2023-02-28T01:13:43;6.40;;;4.38;;
47713;SDS011;33475;46.614;13.888;2023-02-28T01:16:09;6.55;;;4.90;;
47713;SDS011;33475;46.614;13.888;2023-02-28T01:18:35;5.60;;;3.70;;
47713;SDS011;33475;46.614;13.888;2023-02-28T01:21:05;6.40;;;3.88;;
47713;SDS011;33475;46.614;13.888;2023-02-28T01:23:32;8.23;;;4.22;;
47713;SDS011;33475;46.614;13.888;2023-02-28T01:26:09;4.50;;;4.10;;
47713;SDS011;33475;46.614;13.888;2023-02-28T01:28:36;5.97;;;4.47;;
47713;SDS011;33475;46.614;13.888;2023-02-28T01:31:02;9.60;;;4.43;;
47713;SDS011;33475;46.614;13.888;2023-02-28T01:33:28;6.88;;;4.30;;
47713;SDS011;33475;46.614;13.888;2023-02-28T01:38:26;5.25;;;4.05;;
47713;SDS011;33475;46.614;13.888;2023-02-28T01:40:53;7.53;;;4.57;;
47713;SDS011;33475;46.614;13.888;2023-02-28T01:43:20;6.10;;;4.47;;
47713;SDS011;33475;46.614;13.888;2023-02-28T01:45:47;6.95;;;4.40;;
47713;SDS011;33475;46.614;13.888;2023-02-28T01:48:13;5.13;;;4.28;;
47713;SDS011;33475;46.614;13.888;2023-02-28T01:50:41;4.60;;;3.90;;
47713;SDS011;33475;46.614;13.888;2023-02-28T01:53:10;5.03;;;4.32;;
47713;SDS011;33475;46.614;13.888;2023-02-28T01:55:38;6.00;;;4.55;;
47713;SDS011;33475;46.614;13.888;2023-02-28T01:58:04;5.38;;;4.70;;
47713;SDS011;33475;46.614;13.888;2023-02-28T02:00:32;5.13;;;4.38;;
47713;SDS011;33475;46.614;13.888;2023-02-28T02:02:59;7.18;;;4.50;;
47713;SDS011;33475;46.614;13.888;2023-02-28T02:05:27;5.25;;;4.70;;
47713;SDS011;33475;46.614;13.888;2023-02-28T02:07:56;10.57;;;6.38;;
47713;SDS011;33475;46.614;13.888;2023-02-28T02:10:33;8.27;;;4.25;;
47713;SDS011;33475;46.614;13.888;2023-02-28T02:26:15;6.53;;;4.85;;
47713;SDS011;33475;46.614;13.888;2023-02-28T02:31:38;5.22;;;4.07;;
47713;SDS011;33475;46.614;13.888;2023-02-28T02:34:18;4.20;;;3.80;;
47713;SDS011;33475;46.614;13.888;2023-02-28T02:36:59;5.65;;;4.13;;
47713;SDS011;33475;46.614;13.888;2023-02-28T02:39:35;6.22;;;4.22;;
47713;SDS011;33475;46.614;13.888;2023-02-28T02:42:06;6.28;;;4.60;;
47713;SDS011;33475;46.614;13.888;2023-02-28T02:44:39;10.35;;;4.70;;
47713;SDS011;33475;46.614;13.888;2023-02-28T02:47:14;5.57;;;4.32;;
47713;SDS011;33475;46.614;13.888;2023-02-28T02:49:42;4.72;;;4.32;;
47713;SDS011;33475;46.614;13.888;2023-02-28T02:52:10;4.43;;;4.03;;
47713;SDS011;33475;46.614;13.888;2023-02-28T02:54:40;5.32;;;4.82;;
47713;SDS011;33475;46.614;13.888;2023-02-28T02:57:08;6.28;;;4.97;;
47713;SDS011;33475;46.614;13.888;2023-02-28T02:59:36;6.22;;;4.18;;
47713;SDS011;33475;46.614;13.888;2023-02-28T03:02:04;5.30;;;4.65;;
47713;SDS011;33475;46.614;13.888;2023-02-28T03:04:32;5.72;;;4.03;;
47713;SDS011;33475;46.614;13.888;2023-02-28T03:07:00;6.07;;;4.97;;
47713;SDS011;33475;46.614;13.888;2023-02-28T03:09:26;6.90;;;4.15;;
47713;SDS011;33475;46.614;13.888;2023-02-28T03:11:53;8.13;;;4.85;;
47713;SDS011;33475;46.614;13.888;2023-02-28T03:19:45;5.85;;;4.88;;
47713;SDS011;33475;46.614;13.888;2023-02-28T03:22:23;5.47;;;4.20;;
47713;SDS011;33475;46.614;13.888;2023-02-28T03:27:29;4.60;;;4.10;;
47713;SDS011;33475;46.614;13.888;2023-02-28T03:30:22;4.82;;;4.32;;
47713;SDS011;33475;46.614;13.888;2023-02-28T03:33:10;5.20;;;4.68;;
47713;SDS011;33475;46.614;13.888;2023-02-28T03:40:47;5.35;;;4.80;;
47713;SDS011;33475;46.614;13.888;2023-02-28T03:43:17;6.53;;;5.05;;
47713;SDS011;33475;46.614;13.888;2023-02-28T03:45:44;9.05;;;5.97;;
47713;SDS011;33475;46.614;13.888;2023-02-28T03:50:41;5.60;;;4.50;;
47713;SDS011;33475;46.614;13.888;2023-02-28T03:55:35;6.90;;;4.55;;
47713;SDS011;33475;46.614;13.888;2023-02-28T04:00:53;6.97;;;4.53;;
47713;SDS011;33475;46.614;13.888;2023-02-28T04:03:21;8.77;;;4.80;;
47713;SDS011;33475;46.614;13.888;2023-02-28T04:05:52;5.28;;;4.78;;
47713;SDS011;33475;46.614;13.888;2023-02-28T04:08:19;5.65;;;5.10;;
47713;SDS011;33475;46.614;13.888;2023-02-28T04:10:47;7.05;;;5.25;;
47713;SDS011;33475;46.614;13.888;2023-02-28T04:13:15;6.60;;;5.18;;
47713;SDS011;33475;46.614;13.888;2023-02-28T04:15:42;6.07;;;4.85;;
47713;SDS011;33475;46.614;13.888;2023-02-28T04:18:08;6.28;;;5.22;;
47713;SDS011;33475;46.614;13.888;2023-02-28T04:20:34;6.00;;;5.13;;
47713;SDS011;33475;46.614;13.888;2023-02-28T04:23:00;6.70;;;4.80;;
47713;SDS011;33475;46.614;13.888;2023-02-28T04:25:26;5.72;;;4.82;;
47713;SDS011;33475;46.614;13.888;2023-02-28T04:27:52;9.95;;;5.82;;
47713;SDS011;33475;46.614;13.888;2023-02-28T04:30:18;14.18;;;6.30;;
47713;SDS011;33475;46.614;13.888;2023-02-28T04:32:45;6.72;;;5.78;;
47713;SDS011;33475;46.614;13.888;2023-02-28T04:35:11;6.93;;;4.85;;
47713;SDS011;33475;46.614;13.888;2023-02-28T04:37:37;7.45;;;5.25;;
47713;SDS011;33475;46.614;13.888;2023-02-28T04:40:03;10.15;;;5.82;;
47713;SDS011;33475;46.614;13.888;2023-02-28T04:42:29;10.98;;;5.50;;
47713;SDS011;33475;46.614;13.888;2023-02-28T04:45:01;6.70;;;5.88;;
47713;SDS011;33475;46.614;13.888;2023-02-28T04:47:27;6.55;;;5.53;;
47713;SDS011;33475;46.614;13.888;2023-02-28T04:49:54;8.52;;;5.88;;
47713;SDS011;33475;46.614;13.888;2023-02-28T04:52:20;6.28;;;5.18;;
47713;SDS011;33475;46.614;13.888;2023-02-28T04:54:47;6.65;;;5.07;;
47713;SDS011;33475;46.614;13.888;2023-02-28T04:57:14;5.20;;;4.63;;
47713;SDS011;33475;46.614;13.888;2023-02-28T04:59:40;7.93;;;5.22;;
47713;SDS011;33475;46.614;13.888;2023-02-28T05:02:06;8.63;;;5.22;;
47713;SDS011;33475;46.614;13.888;2023-02-28T05:04:33;8.60;;;4.82;;
47713;SDS011;33475;46.614;13.888;2023-02-28T05:06:59;8.10;;;5.07;;
47713;SDS011;33475;46.614;13.888;2023-02-28T05:09:26;9.52;;;4.55;;
47713;SDS011;33475;46.614;13.888;2023-02-28T05:11:53;5.40;;;4.60;;
47713;SDS011;33475;46.614;13.888;2023-02-28T05:14:19;5.72;;;5.13;;
47713;SDS011;33475;46.614;13.888;2023-02-28T05:16:45;7.82;;;5.00;;
47713;SDS011;33475;46.614;13.888;2023-02-28T05:19:12;7.50;;;5.65;;
47713;SDS011;33475;46.614;13.888;2023-02-28T05:21:41;6.07;;;5.47;;
47713;SDS011;33475;46.614;13.888;2023-02-28T05:24:11;10.65;;;5.40;;
47713;SDS011;33475;46.614;13.888;2023-02-28T05:26:38;6.00;;;5.10;;
47713;SDS011;33475;46.614;13.888;2023-02-28T05:29:05;6.45;;;5.03;;
47713;SDS011;33475;46.614;13.888;2023-02-28T05:31:32;6.78;;;5.55;;
47713;SDS011;33475;46.614;13.888;2023-02-28T05:33:58;6.80;;;5.63;;
47713;SDS011;33475;46.614;13.888;2023-02-28T05:36:24;8.27;;;4.38;;
47713;SDS011;33475;46.614;13.888;2023-02-28T05:38:50;6.55;;;5.43;;
47713;SDS011;33475;46.614;13.888;2023-02-28T05:41:17;7.22;;;5.22;;
47713;SDS011;33475;46.614;13.888;2023-02-28T05:43:44;6.07;;;5.13;;
47713;SDS011;33475;46.614;13.888;2023-02-28T05:46:11;8.40;;;5.43;;
47713;SDS011;33475;46.614;13.888;2023-02-28T05:48:38;7.10;;;5.80;;
47713;SDS011;33475;46.614;13.888;2023-02-28T05:51:05;8.13;;;5.18;;
47713;SDS011;33475;46.614;13.888;2023-02-28T05:53:32;6.18;;;5.38;;
47713;SDS011;33475;46.614;13.888;2023-02-28T05:55:58;8.93;;;5.97;;
47713;SDS011;33475;46.614;13.888;2023-02-28T05:58:24;7.93;;;5.80;;
47713;SDS011;33475;46.614;13.888;2023-02-28T06:00:54;7.43;;;6.28;;
47713;SDS011;33475;46.614;13.888;2023-02-28T06:03:20;13.23;;;6.50;;
47713;SDS011;33475;46.614;13.888;2023-02-28T06:05:46;10.55;;;6.60;;
47713;SDS011;33475;46.614;13.888;2023-02-28T06:08:12;7.60;;;6.35;;
47713;SDS011;33475;46.614;13.888;2023-02-28T06:10:39;8.98;;;6.57;;
47713;SDS011;33475;46.614;13.888;2023-02-28T06:13:05;8.20;;;6.63;;
47713;SDS011;33475;46.614;13.888;2023-02-28T06:15:31;8.13;;;5.97;;
47713;SDS011;33475;46.614;13.888;2023-02-28T06:17:58;8.07;;;6.55;;
47713;SDS011;33475;46.614;13.888;2023-02-28T06:20:25;10.30;;;5.70;;
47713;SDS011;33475;46.614;13.888;2023-02-28T06:22:54;11.38;;;6.72;;
47713;SDS011;33475;46.614;13.888;2023-02-28T06:25:21;11.85;;;6.80;;
47713;SDS011;33475;46.614;13.888;2023-02-28T06:27:47;7.65;;;6.10;;
47713;SDS011;33475;46.614;13.888;2023-02-28T06:30:14;6.75;;;5.75;;
47713;SDS011;33475;46.614;13.888;2023-02-28T06:32:40;9.88;;;6.13;;
47713;SDS011;33475;46.614;13.888;2023-02-28T06:35:07;9.52;;;6.00;;
47713;SDS011;33475;46.614;13.888;2023-02-28T06:37:33;16.17;;;7.13;;
47713;SDS011;33475;46.614;13.888;2023-02-28T06:39:59;12.20;;;7.25;;
47713;SDS011;33475;46.614;13.888;2023-02-28T06:42:25;11.77;;;6.10;;
47713;SDS011;33475;46.614;13.888;2023-02-28T06:44:54;18.33;;;6.50;;
47713;SDS011;33475;46.614;13.888;2023-02-28T06:47:20;7.00;;;5.93;;
47713;SDS011;33475;46.614;13.888;2023-02-28T06:49:46;7.35;;;5.32;;
47713;SDS011;33475;46.614;13.888;2023-02-28T06:52:13;12.07;;;6.15;;
47713;SDS011;33475;46.614;13.888;2023-02-28T06:54:39;7.68;;;6.50;;
47713;SDS011;33475;46.614;13.888;2023-02-28T06:57:06;7.63;;;6.82;;
47713;SDS011;33475;46.614;13.888;2023-02-28T06:59:32;9.88;;;6.00;;
47713;SDS011;33475;46.614;13.888;2023-02-28T07:02:00;11.23;;;7.05;;
47713;SDS011;33475;46.614;13.888;2023-02-28T07:04:27;14.43;;;8.70;;
47713;SDS011;33475;46.614;13.888;2023-02-28T07:06:54;21.40;;;11.32;;
47713;SDS011;33475;46.614;13.888;2023-02-28T07:09:22;16.20;;;10.02;;
47713;SDS011;33475;46.614;13.888;2023-02-28T07:11:48;16.00;;;6.13;;
47713;SDS011;33475;46.614;13.888;2023-02-28T07:14:14;10.88;;;8.25;;
47713;SDS011;33475;46.614;13.888;2023-02-28T07:16:42;16.70;;;9.77;;
47713;SDS011;33475;46.614;13.888;2023-02-28T07:19:09;12.57;;;8.40;;
47713;SDS011;33475;46.614;13.888;2023-02-28T07:21:35;10.52;;;6.70;;
47713;SDS011;33475;46.614;13.888;2023-02-28T07:24:02;21.30;;;8.02;;
47713;SDS011;33475;46.614;13.888;2023-02-28T07:26:28;9.85;;;7.22;;
47713;SDS011;33475;46.614;13.888;2023-02-28T07:28:54;12.00;;;6.95;;
47713;SDS011;33475;46.614;13.888;2023-02-28T07:31:20;12.07;;;8.43;;
47713;SDS011;33475;46.614;13.888;2023-02-28T07:33:46;9.40;;;5.90;;
47713;SDS011;33475;46.614;13.888;2023-02-28T07:36:13;8.55;;;6.45;;
47713;SDS011;33475;46.614;13.888;2023-02-28T07:38:47;15.20;;;6.70;;
47713;SDS011;33475;46.614;13.888;2023-02-28T07:41:18;10.40;;;6.13;;
47713;SDS011;33475;46.614;13.888;2023-02-28T07:43:45;10.18;;;7.32;;
47713;SDS011;33475;46.614;13.888;2023-02-28T07:46:13;12.13;;;7.47;;
47713;SDS011;33475;46.614;13.888;2023-02-28T07:48:42;8.30;;;5.88;;
47713;SDS011;33475;46.614;13.888;2023-02-28T07:51:09;11.60;;;5.88;;
47713;SDS011;33475;46.614;13.888;2023-02-28T07:53:35;9.38;;;6.00;;
47713;SDS011;33475;46.614;13.888;2023-02-28T07:56:01;9.60;;;6.13;;
47713;SDS011;33475;46.614;13.888;2023-02-28T07:58:28;7.22;;;5.57;;
47713;SDS011;33475;46.614;13.888;2023-02-28T08:00:55;8.10;;;5.93;;
47713;SDS011;33475;46.614;13.888;2023-02-28T08:03:22;10.55;;;6.22;;
47713;SDS011;33475;46.614;13.888;2023-02-28T08:05:49;6.68;;;5.10;;
47713;SDS011;33475;46.614;13.888;2023-02-28T08:08:15;10.27;;;5.38;;
47713;SDS011;33475;46.614;13.888;2023-02-28T08:10:42;7.35;;;4.38;;
47713;SDS011;33475;46.614;13.888;2023-02-28T08:13:08;7.20;;;4.85;;
47713;SDS011;33475;46.614;13.888;2023-02-28T08:15:34;5.97;;;5.32;;
47713;SDS011;33475;46.614;13.888;2023-02-28T08:18:01;6.45;;;5.40;;
47713;SDS011;33475;46.614;13.888;2023-02-28T08:20:27;16.33;;;9.82;;
47713;SDS011;33475;46.614;13.888;2023-02-28T08:22:53;6.38;;;5.40;;
47713;SDS011;33475;46.614;13.888;2023-02-28T08:25:20;7.57;;;5.75;;
47713;SDS011;33475;46.614;13.888;2023-02-28T08:27:46;8.07;;;4.32;;
47713;SDS011;33475;46.614;13.888;2023-02-28T08:30:13;7.57;;;5.70;;
47713;SDS011;33475;46.614;13.888;2023-02-28T08:32:39;7.88;;;5.20;;
47713;SDS011;33475;46.614;13.888;2023-02-28T08:35:06;5.38;;;4.82;;
47713;SDS011;33475;46.614;13.888;2023-02-28T08:37:34;6.65;;;5.70;;
47713;SDS011;33475;46.614;13.888;2023-02-28T08:40:00;9.10;;;6.05;;
47713;SDS011;33475;46.614;13.888;2023-02-28T08:42:26;7.78;;;5.28;;
47713;SDS011;33475;46.614;13.888;2023-02-28T08:44:52;6.15;;;5.20;;
47713;SDS011;33475;46.614;13.888;2023-02-28T08:47:18;7.60;;;4.80;;
47713;SDS011;33475;46.614;13.888;2023-02-28T08:49:45;8.25;;;5.25;;
47713;SDS011;33475;46.614;13.888;2023-02-28T08:52:11;7.78;;;5.28;;
47713;SDS011;33475;46.614;13.888;2023-02-28T08:54:37;8.82;;;5.68;;
47713;SDS011;33475;46.614;13.888;2023-02-28T08:57:03;5.97;;;4.97;;
47713;SDS011;33475;46.614;13.888;2023-02-28T08:59:29;6.18;;;5.43;;
47713;SDS011;33475;46.614;13.888;2023-02-28T09:01:56;7.07;;;5.53;;
47713;SDS011;33475;46.614;13.888;2023-02-28T09:04:22;9.32;;;5.50;;
47713;SDS011;33475;46.614;13.888;2023-02-28T09:06:48;7.93;;;5.70;;
47713;SDS011;33475;46.614;13.888;2023-02-28T09:09:14;10.65;;;6.88;;
47713;SDS011;33475;46.614;13.888;2023-02-28T09:11:41;13.07;;;6.72;;
47713;SDS011;33475;46.614;13.888;2023-02-28T09:14:07;9.05;;;5.38;;
47713;SDS011;33475;46.614;13.888;2023-02-28T09:16:33;10.73;;;6.57;;
47713;SDS011;33475;46.614;13.888;2023-02-28T09:19:00;12.68;;;5.82;;
47713;SDS011;33475;46.614;13.888;2023-02-28T09:21:26;10.45;;;5.10;;
47713;SDS011;33475;46.614;13.888;2023-02-28T09:23:53;7.70;;;5.40;;
47713;SDS011;33475;46.614;13.888;2023-02-28T09:26:20;10.43;;;5.93;;
47713;SDS011;33475;46.614;13.888;2023-02-28T09:28:47;9.57;;;6.13;;
47713;SDS011;33475;46.614;13.888;2023-02-28T09:31:15;8.73;;;5.63;;
47713;SDS011;33475;46.614;13.888;2023-02-28T09:33:41;6.93;;;5.45;;
47713;SDS011;33475;46.614;13.888;2023-02-28T09:36:08;5.40;;;4.72;;
47713;SDS011;33475;46.614;13.888;2023-02-28T09:38:34;5.68;;;4.80;;
47713;SDS011;33475;46.614;13.888;2023-02-28T09:41:01;13.23;;;5.10;;
47713;SDS011;33475;46.614;13.888;2023-02-28T09:43:31;5.32;;;4.72;;
47713;SDS011;33475;46.614;13.888;2023-02-28T09:46:00;5.70;;;5.13;;
47713;SDS011;33475;46.614;13.888;2023-02-28T09:48:30;5.82;;;4.82;;
47713;SDS011;33475;46.614;13.888;2023-02-28T09:51:04;8.18;;;5.25;;
47713;SDS011;33475;46.614;13.888;2023-02-28T09:53:32;8.73;;;5.60;;
47713;SDS011;33475;46.614;13.888;2023-02-28T09:56:11;6.20;;;5.32;;
47713;SDS011;33475;46.614;13.888;2023-02-28T09:58:45;7.38;;;5.20;;
47713;SDS011;33475;46.614;13.888;2023-02-28T10:01:18;7.20;;;5.57;;
47713;SDS011;33475;46.614;13.888;2023-02-28T10:03:55;8.48;;;5.90;;
47713;SDS011;33475;46.614;13.888;2023-02-28T10:06:22;5.55;;;5.05;;
47713;SDS011;33475;46.614;13.888;2023-02-28T10:08:53;8.15;;;5.57;;
47713;SDS011;33475;46.614;13.888;2023-02-28T10:11:22;10.48;;;5.38;;
47713;SDS011;33475;46.614;13.888;2023-02-28T10:13:51;9.43;;;5.55;;
47713;SDS011;33475;46.614;13.888;2023-02-28T10:16:21;11.73;;;6.53;;
47713;SDS011;33475;46.614;13.888;2023-02-28T10:21:29;8.30;;;5.82;;
47713;SDS011;33475;46.614;13.888;2023-02-28T10:27:01;7.45;;;5.07;;
47713;SDS011;33475;46.614;13.888;2023-02-28T10:29:32;8.20;;;5.28;;
47713;SDS011;33475;46.614;13.888;2023-02-28T10:31:59;9.90;;;6.32;;
47713;SDS011;33475;46.614;13.888;2023-02-28T10:34:26;7.25;;;5.30;;
47713;SDS011;33475;46.614;13.888;2023-02-28T10:36:53;5.95;;;5.40;;
47713;SDS011;33475;46.614;13.888;2023-02-28T10:39:35;6.05;;;5.45;;
47713;SDS011;33475;46.614;13.888;2023-02-28T10:42:05;7.70;;;5.53;;
47713;SDS011;33475;46.614;13.888;2023-02-28T10:44:44;6.15;;;5.35;;
47713;SDS011;33475;46.614;13.888;2023-02-28T10:47:16;6.85;;;5.05;;
47713;SDS011;33475;46.614;13.888;2023-02-28T10:49:47;10.05;;;5.00;;
47713;SDS011;33475;46.614;13.888;2023-02-28T10:52:14;6.90;;;5.40;;
47713;SDS011;33475;46.614;13.888;2023-02-28T10:57:44;8.52;;;5.50;;
47713;SDS011;33475;46.614;13.888;2023-02-28T11:02:42;9.40;;;5.28;;
47713;SDS011;33475;46.614;13.888;2023-02-28T11:07:56;7.88;;;5.55;;
47713;SDS011;33475;46.614;13.888;2023-02-28T11:10:24;7.82;;;5.90;;
47713;SDS011;33475;46.614;13.888;2023-02-28T11:12:54;7.43;;;5.43;;
47713;SDS011;33475;46.614;13.888;2023-02-28T11:18:21;10.20;;;5.65;;
47713;SDS011;33475;46.614;13.888;2023-02-28T11:20:39;9.13;;;5.85;;
47713;SDS011;33475;46.614;13.888;2023-02-28T11:23:05;5.38;;;4.70;;
47713;SDS011;33475;46.614;13.888;2023-02-28T11:25:36;9.73;;;6.05;;
47713;SDS011;33475;46.614;13.888;2023-02-28T11:28:04;10.85;;;5.68;;
47713;SDS011;33475;46.614;13.888;2023-02-28T11:30:38;6.25;;;5.65;;
47713;SDS011;33475;46.614;13.888;2023-02-28T11:35:48;10.57;;;6.25;;
47713;SDS011;33475;46.614;13.888;2023-02-28T11:38:15;12.80;;;5.68;;
47713;SDS011;33475;46.614;13.888;2023-02-28T11:46:02;8.15;;;5.22;;
47713;SDS011;33475;46.614;13.888;2023-02-28T11:48:36;5.07;;;4.57;;
47713;SDS011;33475;46.614;13.888;2023-02-28T11:51:10;12.25;;;6.43;;
47713;SDS011;33475;46.614;13.888;2023-02-28T11:56:10;8.93;;;5.50;;
47713;SDS011;33475;46.614;13.888;2023-02-28T11:58:43;7.18;;;4.85;;
47713;SDS011;33475;46.614;13.888;2023-02-28T12:01:22;11.82;;;5.65;;
47713;SDS011;33475;46.614;13.888;2023-02-28T12:06:25;12.07;;;6.50;;
47713;SDS011;33475;46.614;13.888;2023-02-28T12:19:20;11.63;;;6.40;;
47713;SDS011;33475;46.614;13.888;2023-02-28T12:24:25;13.48;;;7.90;;
47713;SDS011;33475;46.614;13.888;2023-02-28T12:26:54;13.27;;;5.70;;
47713;SDS011;33475;46.614;13.888;2023-02-28T12:29:30;10.98;;;6.40;;
47713;SDS011;33475;46.614;13.888;2023-02-28T12:32:16;8.23;;;5.65;;
47713;SDS011;33475;46.614;13.888;2023-02-28T12:34:46;18.08;;;7.05;;
47713;SDS011;33475;46.614;13.888;2023-02-28T12:37:15;17.05;;;7.82;;
47713;SDS011;33475;46.614;13.888;2023-02-28T12:39:46;15.63;;;7.28;;
47713;SDS011;33475;46.614;13.888;2023-02-28T12:44:52;13.23;;;7.22;;
47713;SDS011;33475;46.614;13.888;2023-02-28T12:47:20;14.32;;;7.68;;
47713;SDS011;33475;46.614;13.888;2023-02-28T12:49:50;17.50;;;7.32;;
47713;SDS011;33475;46.614;13.888;2023-02-28T12:53:04;18.45;;;9.45;;
47713;SDS011;33475;46.614;13.888;2023-02-28T12:56:07;15.40;;;8.68;;
47713;SDS011;33475;46.614;13.888;2023-02-28T13:00:33;13.40;;;7.22;;
47713;SDS011;33475;46.614;13.888;2023-02-28T13:11:06;8.82;;;5.95;;
47713;SDS011;33475;46.614;13.888;2023-02-28T13:13:32;10.30;;;7.05;;
47713;SDS011;33475;46.614;13.888;2023-02-28T13:16:08;15.07;;;7.50;;
47713;SDS011;33475;46.614;13.888;2023-02-28T13:18:39;11.38;;;6.75;;
47713;SDS011;33475;46.614;13.888;2023-02-28T13:21:06;14.73;;;8.48;;
47713;SDS011;33475;46.614;13.888;2023-02-28T13:24:35;10.02;;;6.75;;
47713;SDS011;33475;46.614;13.888;2023-02-28T13:28:58;15.30;;;9.43;;
47713;SDS011;33475;46.614;13.888;2023-02-28T13:31:24;15.50;;;9.73;;
47713;SDS011;33475;46.614;13.888;2023-02-28T13:36:28;15.18;;;8.82;;
47713;SDS011;33475;46.614;13.888;2023-02-28T13:38:56;14.60;;;11.15;;
47713;SDS011;33475;46.614;13.888;2023-02-28T13:44:18;7.68;;;5.82;;
47713;SDS011;33475;46.614;13.888;2023-02-28T13:59:30;7.43;;;6.13;;
47713;SDS011;33475;46.614;13.888;2023-02-28T14:02:40;11.48;;;9.20;;
47713;SDS011;33475;46.614;13.888;2023-02-28T14:07:23;6.80;;;5.85;;
47713;SDS011;33475;46.614;13.888;2023-02-28T14:20:25;8.85;;;6.60;;
47713;SDS011;33475;46.614;13.888;2023-02-28T14:23:06;15.55;;;10.73;;
47713;SDS011;33475;46.614;13.888;2023-02-28T14:28:23;9.05;;;6.47;;
47713;SDS011;33475;46.614;13.888;2023-02-28T14:30:56;12.32;;;7.07;;
47713;SDS011;33475;46.614;13.888;2023-02-28T14:38:36;13.35;;;6.85;;
47713;SDS011;33475;46.614;13.888;2023-02-28T14:41:13;13.43;;;6.65;;
47713;SDS011;33475;46.614;13.888;2023-02-28T14:43:47;11.60;;;6.85;;
47713;SDS011;33475;46.614;13.888;2023-02-28T14:46:14;12.00;;;6.82;;
47713;SDS011;33475;46.614;13.888;2023-02-28T14:48:41;8.77;;;6.47;;
47713;SDS011;33475;46.614;13.888;2023-02-28T14:51:10;9.85;;;6.75;;
47713;SDS011;33475;46.614;13.888;2023-02-28T14:53:36;9.50;;;6.38;;
47713;SDS011;33475;46.614;13.888;2023-02-28T14:56:03;10.75;;;6.97;;
47713;SDS011;33475;46.614;13.888;2023-02-28T14:58:30;8.48;;;7.07;;
47713;SDS011;33475;46.614;13.888;2023-02-28T15:00:58;14.27;;;7.10;;
47713;SDS011;33475;46.614;13.888;2023-02-28T15:05:57;18.15;;;9.82;;
47713;SDS011;33475;46.614;13.888;2023-02-28T15:08:24;15.60;;;8.55;;
47713;SDS011;33475;46.614;13.888;2023-02-28T15:10:58;19.52;;;12.10;;
47713;SDS011;33475;46.614;13.888;2023-02-28T15:13:47;13.43;;;7.68;;
47713;SDS011;33475;46.614;13.888;2023-02-28T15:16:13;15.30;;;8.45;;
47713;SDS011;33475;46.614;13.888;2023-02-28T15:19:00;19.73;;;11.73;;
47713;SDS011;33475;46.614;13.888;2023-02-28T15:21:34;13.82;;;9.20;;
47713;SDS011;33475;46.614;13.888;2023-02-28T15:24:03;18.53;;;11.37;;
47713;SDS011;33475;46.614;13.888;2023-02-28T15:26:34;16.13;;;10.00;;
47713;SDS011;33475;46.614;13.888;2023-02-28T15:29:23;16.73;;;9.85;;
47713;SDS011;33475;46.614;13.888;2023-02-28T15:31:55;16.83;;;10.38;;
47713;SDS011;33475;46.614;13.888;2023-02-28T15:36:50;22.38;;;12.43;;
47713;SDS011;33475;46.614;13.888;2023-02-28T15:39:21;22.38;;;11.10;;
47713;SDS011;33475;46.614;13.888;2023-02-28T15:41:47;22.95;;;10.93;;
47713;SDS011;33475;46.614;13.888;2023-02-28T15:44:15;21.10;;;11.30;;
47713;SDS011;33475;46.614;13.888;2023-02-28T15:46:43;26.45;;;12.70;;
47713;SDS011;33475;46.614;13.888;2023-02-28T15:49:16;19.00;;;11.23;;
47713;SDS011;33475;46.614;13.888;2023-02-28T15:51:43;35.60;;;16.65;;
47713;SDS011;33475;46.614;13.888;2023-02-28T15:54:13;21.33;;;11.73;;
47713;SDS011;33475;46.614;13.888;2023-02-28T15:56:49;20.92;;;11.00;;
47713;SDS011;33475;46.614;13.888;2023-02-28T15:59:21;14.55;;;10.70;;
47713;SDS011;33475;46.614;13.888;2023-02-28T16:02:01;24.85;;;14.07;;
47713;SDS011;33475;46.614;13.888;2023-02-28T16:04:28;25.35;;;13.57;;
47713;SDS011;33475;46.614;13.888;2023-02-28T16:09:22;10.85;;;7.45;;
47713;SDS011;33475;46.614;13.888;2023-02-28T16:11:49;13.68;;;7.53;;
47713;SDS011;33475;46.614;13.888;2023-02-28T16:14:17;12.05;;;8.27;;
47713;SDS011;33475;46.614;13.888;2023-02-28T16:16:45;15.80;;;10.25;;
47713;SDS011;33475;46.614;13.888;2023-02-28T16:19:11;12.05;;;7.97;;
47713;SDS011;33475;46.614;13.888;2023-02-28T16:21:37;11.65;;;7.70;;
47713;SDS011;33475;46.614;13.888;2023-02-28T16:24:04;14.70;;;8.25;;
47713;SDS011;33475;46.614;13.888;2023-02-28T16:26:30;14.95;;;8.20;;
47713;SDS011;33475;46.614;13.888;2023-02-28T16:28:59;16.02;;;8.57;;
47713;SDS011;33475;46.614;13.888;2023-02-28T16:31:26;16.30;;;8.38;;
47713;SDS011;33475;46.614;13.888;2023-02-28T16:33:52;14.85;;;7.72;;
47713;SDS011;33475;46.614;13.888;2023-02-28T16:36:23;13.95;;;8.98;;
47713;SDS011;33475;46.614;13.888;2023-02-28T16:38:53;15.27;;;7.82;;
47713;SDS011;33475;46.614;13.888;2023-02-28T16:41:24;14.73;;;8.85;;
47713;SDS011;33475;46.614;13.888;2023-02-28T16:43:51;16.42;;;9.90;;
47713;SDS011;33475;46.614;13.888;2023-02-28T16:46:18;18.00;;;11.35;;
47713;SDS011;33475;46.614;13.888;2023-02-28T16:48:46;13.52;;;9.55;;
47713;SDS011;33475;46.614;13.888;2023-02-28T16:51:16;28.50;;;14.88;;
47713;SDS011;33475;46.614;13.888;2023-02-28T16:53:43;45.30;;;20.73;;
47713;SDS011;33475;46.614;13.888;2023-02-28T16:56:14;22.23;;;12.15;;
47713;SDS011;33475;46.614;13.888;2023-02-28T16:58:41;22.50;;;12.77;;
47713;SDS011;33475;46.614;13.888;2023-02-28T17:01:08;50.63;;;20.73;;